DIFFX BKPR-LQSA
Flight info
| Callsign | DIFFX |
|---|---|
| Flight time | 0h 33m |
| Altitude | 20000 |
| Route | DOLEV1D DOLEV L608 KEB |
| Aircraft | HDJT/L-SABDGRWY/H |
Departure
| Time | 2026-04-21 06:34 |
|---|---|
| Airport | Priština Adem Jashari International Airport (BKPR) |
Arrival
| Time | 2026-04-21 07:07 |
|---|---|
| Airport | Sarajevo International Airport (LQSA) |
| Time | Latitude | Longitude | Altitude | Speed | Heading |
|---|---|---|---|---|---|
| 2026-04-21 06:22 | 42.58014 | 21.03118 | 1770 ft | 0 kts | 279° |
| 2026-04-21 06:31 | 42.58013 | 21.03105 | 1772 ft | 4 kts | 228° |
| 2026-04-21 06:31 | 42.58004 | 21.03111 | 1773 ft | 3 kts | 101° |
| 2026-04-21 06:32 | 42.58008 | 21.03192 | 1770 ft | 14 kts | 86° |
| 2026-04-21 06:32 | 42.57986 | 21.03330 | 1771 ft | 19 kts | 127° |
| 2026-04-21 06:32 | 42.57848 | 21.03466 | 1770 ft | 30 kts | 151° |
| 2026-04-21 06:32 | 42.57613 | 21.03553 | 1770 ft | 40 kts | 174° |
| 2026-04-21 06:33 | 42.57305 | 21.03582 | 1772 ft | 48 kts | 176° |
| 2026-04-21 06:33 | 42.57204 | 21.03580 | 1773 ft | 6 kts | 67° |
| 2026-04-21 06:33 | 42.57299 | 21.03586 | 1771 ft | 31 kts | 356° |
| 2026-04-21 06:33 | 42.57806 | 21.03535 | 1768 ft | 113 kts | 356° |
| 2026-04-21 06:34 | 42.58620 | 21.03461 | 2283 ft | 113 kts | 356° |
| 2026-04-21 06:34 | 42.59427 | 21.03373 | 2751 ft | 127 kts | 356° |
| 2026-04-21 06:34 | 42.60410 | 21.03272 | 2993 ft | 155 kts | 357° |
| 2026-04-21 06:34 | 42.61568 | 21.03157 | 3347 ft | 181 kts | 357° |
| 2026-04-21 06:35 | 42.62928 | 21.02997 | 3671 ft | 208 kts | 352° |
| 2026-04-21 06:35 | 42.64210 | 21.02116 | 4418 ft | 214 kts | 316° |
| 2026-04-21 06:35 | 42.65167 | 21.00413 | 4708 ft | 241 kts | 304° |
| 2026-04-21 06:35 | 42.66058 | 20.98447 | 5421 ft | 237 kts | 303° |
| 2026-04-21 06:36 | 42.66948 | 20.96703 | 6359 ft | 213 kts | 305° |
| 2026-04-21 06:36 | 42.67810 | 20.95087 | 7234 ft | 212 kts | 304° |
| 2026-04-21 06:36 | 42.68671 | 20.93436 | 7975 ft | 215 kts | 303° |
| 2026-04-21 06:36 | 42.69532 | 20.91763 | 8770 ft | 216 kts | 302° |
| 2026-04-21 06:37 | 42.70305 | 20.90019 | 9575 ft | 215 kts | 289° |
| 2026-04-21 06:37 | 42.70743 | 20.88104 | 10308 ft | 215 kts | 284° |
| 2026-04-21 06:37 | 42.71181 | 20.86164 | 11065 ft | 215 kts | 285° |
| 2026-04-21 06:37 | 42.71624 | 20.84223 | 11826 ft | 214 kts | 284° |
| 2026-04-21 06:38 | 42.72055 | 20.82288 | 12624 ft | 213 kts | 284° |
| 2026-04-21 06:38 | 42.72488 | 20.80353 | 13409 ft | 213 kts | 284° |
| 2026-04-21 06:38 | 42.72919 | 20.78431 | 14159 ft | 213 kts | 284° |
| 2026-04-21 06:38 | 42.73352 | 20.76493 | 14816 ft | 215 kts | 285° |
| 2026-04-21 06:39 | 42.73789 | 20.74532 | 15435 ft | 218 kts | 285° |
| 2026-04-21 06:39 | 42.74232 | 20.72551 | 16112 ft | 220 kts | 285° |
| 2026-04-21 06:39 | 42.74675 | 20.70579 | 16785 ft | 221 kts | 285° |
| 2026-04-21 06:39 | 42.75125 | 20.68560 | 17460 ft | 224 kts | 285° |
| 2026-04-21 06:40 | 42.75580 | 20.66518 | 18142 ft | 227 kts | 285° |
| 2026-04-21 06:40 | 42.76039 | 20.64450 | 18782 ft | 229 kts | 285° |
| 2026-04-21 06:40 | 42.76500 | 20.62376 | 19431 ft | 230 kts | 285° |
| 2026-04-21 06:40 | 42.76964 | 20.60282 | 19989 ft | 235 kts | 285° |
| 2026-04-21 06:41 | 42.77461 | 20.58033 | 20013 ft | 261 kts | 285° |
| 2026-04-21 06:41 | 42.78009 | 20.55561 | 20021 ft | 284 kts | 285° |
| 2026-04-21 06:41 | 42.78595 | 20.52918 | 20020 ft | 299 kts | 285° |
| 2026-04-21 06:41 | 42.79204 | 20.50167 | 20021 ft | 305 kts | 285° |
| 2026-04-21 06:42 | 42.79814 | 20.47411 | 20026 ft | 304 kts | 285° |
| 2026-04-21 06:42 | 42.80420 | 20.44658 | 20022 ft | 304 kts | 285° |
| 2026-04-21 06:42 | 42.81028 | 20.41899 | 20017 ft | 304 kts | 285° |
| 2026-04-21 06:42 | 42.81636 | 20.39136 | 20017 ft | 304 kts | 285° |
| 2026-04-21 06:43 | 42.82242 | 20.36376 | 20010 ft | 304 kts | 285° |
| 2026-04-21 06:43 | 42.82863 | 20.33626 | 20011 ft | 304 kts | 288° |
| 2026-04-21 06:43 | 42.83750 | 20.31002 | 20017 ft | 306 kts | 297° |
| 2026-04-21 06:43 | 42.84942 | 20.28589 | 20016 ft | 309 kts | 306° |
| 2026-04-21 06:44 | 42.86326 | 20.26343 | 20016 ft | 309 kts | 306° |
| 2026-04-21 06:44 | 42.87692 | 20.24088 | 20024 ft | 309 kts | 306° |
| 2026-04-21 06:44 | 42.89064 | 20.21808 | 20008 ft | 316 kts | 306° |
| 2026-04-21 06:44 | 42.90489 | 20.19470 | 20009 ft | 322 kts | 306° |
| 2026-04-21 06:45 | 42.91923 | 20.17122 | 20013 ft | 322 kts | 306° |
| 2026-04-21 06:45 | 42.93329 | 20.14803 | 20013 ft | 321 kts | 306° |
| 2026-04-21 06:45 | 42.94753 | 20.12449 | 20017 ft | 321 kts | 306° |
| 2026-04-21 06:45 | 42.96176 | 20.10100 | 20016 ft | 321 kts | 306° |
| 2026-04-21 06:46 | 42.97600 | 20.07750 | 20021 ft | 321 kts | 306° |
| 2026-04-21 06:46 | 42.99022 | 20.05398 | 20014 ft | 321 kts | 306° |
| 2026-04-21 06:46 | 43.00440 | 20.03051 | 20016 ft | 320 kts | 306° |
| 2026-04-21 06:46 | 43.01859 | 20.00701 | 20012 ft | 321 kts | 306° |
| 2026-04-21 06:47 | 43.03280 | 19.98346 | 20017 ft | 321 kts | 306° |
| 2026-04-21 06:47 | 43.04700 | 19.95990 | 20016 ft | 322 kts | 306° |
| 2026-04-21 06:47 | 43.06121 | 19.93633 | 20013 ft | 321 kts | 306° |
| 2026-04-21 06:47 | 43.07540 | 19.91276 | 19988 ft | 321 kts | 306° |
| 2026-04-21 06:48 | 43.08959 | 19.88917 | 20000 ft | 321 kts | 306° |
| 2026-04-21 06:48 | 43.10377 | 19.86556 | 20001 ft | 321 kts | 306° |
| 2026-04-21 06:48 | 43.11793 | 19.84196 | 20004 ft | 321 kts | 306° |
| 2026-04-21 06:48 | 43.13209 | 19.81836 | 20006 ft | 321 kts | 306° |
| 2026-04-21 06:49 | 43.14627 | 19.79475 | 20002 ft | 321 kts | 306° |
| 2026-04-21 06:49 | 43.16046 | 19.77104 | 20001 ft | 322 kts | 306° |
| 2026-04-21 06:49 | 43.17467 | 19.74727 | 20000 ft | 322 kts | 306° |
| 2026-04-21 06:49 | 43.18887 | 19.72354 | 20000 ft | 321 kts | 306° |
| 2026-04-21 06:50 | 43.20304 | 19.69984 | 20002 ft | 321 kts | 306° |
| 2026-04-21 06:50 | 43.21701 | 19.67644 | 20005 ft | 321 kts | 306° |
| 2026-04-21 06:50 | 43.23118 | 19.65269 | 20002 ft | 321 kts | 306° |
| 2026-04-21 06:50 | 43.24532 | 19.62899 | 19999 ft | 321 kts | 306° |
| 2026-04-21 06:51 | 43.25948 | 19.60519 | 19996 ft | 322 kts | 306° |
| 2026-04-21 06:51 | 43.27363 | 19.58139 | 19994 ft | 321 kts | 306° |
| 2026-04-21 06:51 | 43.28779 | 19.55761 | 19996 ft | 321 kts | 306° |
| 2026-04-21 06:51 | 43.30196 | 19.53376 | 20014 ft | 322 kts | 306° |
| 2026-04-21 06:52 | 43.31612 | 19.50989 | 20010 ft | 322 kts | 306° |
| 2026-04-21 06:52 | 43.33028 | 19.48602 | 20009 ft | 322 kts | 306° |
| 2026-04-21 06:52 | 43.34449 | 19.46205 | 20010 ft | 324 kts | 306° |
| 2026-04-21 06:52 | 43.35876 | 19.43794 | 20010 ft | 325 kts | 306° |
| 2026-04-21 06:53 | 43.37287 | 19.41411 | 19729 ft | 324 kts | 306° |
| 2026-04-21 06:53 | 43.38705 | 19.39015 | 19363 ft | 322 kts | 306° |
| 2026-04-21 06:53 | 43.40114 | 19.36631 | 19001 ft | 321 kts | 306° |
| 2026-04-21 06:53 | 43.41517 | 19.34253 | 18651 ft | 319 kts | 306° |
| 2026-04-21 06:54 | 43.42914 | 19.31884 | 18298 ft | 318 kts | 306° |
| 2026-04-21 06:54 | 43.44305 | 19.29527 | 17892 ft | 317 kts | 306° |
| 2026-04-21 06:54 | 43.45691 | 19.27172 | 17490 ft | 315 kts | 306° |
| 2026-04-21 06:54 | 43.47067 | 19.24834 | 17092 ft | 314 kts | 306° |
| 2026-04-21 06:55 | 43.48442 | 19.22499 | 16698 ft | 313 kts | 306° |
| 2026-04-21 06:55 | 43.49811 | 19.20167 | 16307 ft | 312 kts | 307° |
| 2026-04-21 06:55 | 43.50714 | 19.18626 | 16049 ft | 313 kts | 307° |
| 2026-04-21 06:55 | 43.52084 | 19.16293 | 15685 ft | 313 kts | 307° |
| 2026-04-21 06:56 | 43.53421 | 19.13940 | 15311 ft | 310 kts | 301° |
| 2026-04-21 06:56 | 43.54234 | 19.11213 | 14943 ft | 309 kts | 285° |
| 2026-04-21 06:56 | 43.54728 | 19.08334 | 14578 ft | 309 kts | 282° |
| 2026-04-21 06:56 | 43.55195 | 19.05447 | 14222 ft | 308 kts | 283° |
| 2026-04-21 06:57 | 43.55778 | 19.02612 | 13859 ft | 308 kts | 287° |
| 2026-04-21 06:57 | 43.56431 | 18.99806 | 13463 ft | 307 kts | 287° |
| 2026-04-21 06:57 | 43.57032 | 18.96994 | 13067 ft | 305 kts | 285° |
| 2026-04-21 06:57 | 43.57595 | 18.94179 | 12665 ft | 304 kts | 285° |
| 2026-04-21 06:58 | 43.58172 | 18.91375 | 12282 ft | 303 kts | 286° |
| 2026-04-21 06:58 | 43.58753 | 18.88626 | 11899 ft | 301 kts | 286° |
| 2026-04-21 06:58 | 43.59334 | 18.85852 | 11512 ft | 300 kts | 286° |
| 2026-04-21 06:58 | 43.59893 | 18.83151 | 11132 ft | 286 kts | 286° |
| 2026-04-21 06:59 | 43.60429 | 18.80558 | 10757 ft | 277 kts | 286° |
| 2026-04-21 06:59 | 43.60961 | 18.77996 | 10388 ft | 278 kts | 287° |
| 2026-04-21 06:59 | 43.61493 | 18.75427 | 10029 ft | 278 kts | 287° |
| 2026-04-21 06:59 | 43.62022 | 18.72863 | 9639 ft | 277 kts | 287° |
| 2026-04-21 07:00 | 43.62552 | 18.70307 | 9247 ft | 277 kts | 287° |
| 2026-04-21 07:00 | 43.63077 | 18.67760 | 8848 ft | 274 kts | 287° |
| 2026-04-21 07:00 | 43.63596 | 18.65238 | 8515 ft | 272 kts | 287° |
| 2026-04-21 07:00 | 43.64111 | 18.62726 | 8260 ft | 274 kts | 286° |
| 2026-04-21 07:01 | 43.64623 | 18.60243 | 8012 ft | 266 kts | 287° |
| 2026-04-21 07:01 | 43.65115 | 18.57872 | 7883 ft | 246 kts | 287° |
| 2026-04-21 07:01 | 43.66011 | 18.53562 | 7543 ft | 227 kts | 287° |
| 2026-04-21 07:02 | 43.66442 | 18.51485 | 7236 ft | 223 kts | 287° |
| 2026-04-21 07:02 | 43.66868 | 18.49443 | 6935 ft | 219 kts | 288° |
| 2026-04-21 07:02 | 43.67120 | 18.47381 | 6635 ft | 218 kts | 272° |
| 2026-04-21 07:02 | 43.67106 | 18.45299 | 6490 ft | 213 kts | 270° |
| 2026-04-21 07:03 | 43.67149 | 18.43263 | 6144 ft | 212 kts | 279° |
| 2026-04-21 07:03 | 43.67685 | 18.41411 | 5691 ft | 213 kts | 308° |
| 2026-04-21 07:03 | 43.68790 | 18.40067 | 5347 ft | 211 kts | 334° |
| 2026-04-21 07:03 | 43.70164 | 18.39480 | 5015 ft | 204 kts | 351° |
| 2026-04-21 07:04 | 43.71565 | 18.39393 | 4664 ft | 200 kts | 4° |
| 2026-04-21 07:04 | 43.72933 | 18.39594 | 4302 ft | 194 kts | 4° |
| 2026-04-21 07:04 | 43.74242 | 18.39756 | 4005 ft | 189 kts | 3° |
| 2026-04-21 07:04 | 43.75509 | 18.39916 | 3733 ft | 176 kts | 4° |
| 2026-04-21 07:05 | 43.76692 | 18.40069 | 3481 ft | 166 kts | 5° |
| 2026-04-21 07:05 | 43.77799 | 18.40244 | 3273 ft | 152 kts | 2° |
| 2026-04-21 07:05 | 43.78761 | 18.40030 | 3067 ft | 130 kts | 345° |
| 2026-04-21 07:05 | 43.79529 | 18.39548 | 2867 ft | 115 kts | 329° |
| 2026-04-21 07:06 | 43.80153 | 18.38857 | 2705 ft | 117 kts | 319° |
| 2026-04-21 07:06 | 43.80660 | 18.37973 | 2499 ft | 116 kts | 303° |
| 2026-04-21 07:06 | 43.81031 | 18.36987 | 2306 ft | 116 kts | 300° |
| 2026-04-21 07:06 | 43.81386 | 18.36006 | 2103 ft | 115 kts | 300° |
| 2026-04-21 07:07 | 43.81752 | 18.34995 | 1905 ft | 118 kts | 302° |
| 2026-04-21 07:07 | 43.82134 | 18.34005 | 1704 ft | 113 kts | 302° |
| 2026-04-21 07:07 | 43.82432 | 18.33222 | 1668 ft | 53 kts | 297° |
| 2026-04-21 07:07 | 43.82482 | 18.33101 | 1666 ft | 3 kts | 4° |
| 2026-04-21 07:08 | 43.82515 | 18.33191 | 1667 ft | 19 kts | 74° |
| 2026-04-21 07:08 | 43.82571 | 18.33378 | 1667 ft | 18 kts | 68° |
| 2026-04-21 07:08 | 43.82594 | 18.33412 | 1668 ft | 6 kts | 30° |
| 2026-04-21 07:08 | 43.82604 | 18.33433 | 1668 ft | 0 kts | 98° |